Time;durP1;ratioP1;P1;durP2;ratioP2;P2;SDS_P1;SDS_P2;PMS_P1;PMS_P2;Temp;Humidity;BMP_temperature;BMP_pressure;BME280_temperature;BME280_humidity;BME280_pressure;Samples;Min_cycle;Max_cycle;Signal;HPM_P1;HPM_P2
2021/03/09 00:01:46;;;;;;;18.70;11.10;;;;;;;1.42;71.78;100865.66;5008900;28;20074;-69
2021/03/09 00:04:11;;;;;;;18.88;10.43;;;;;;;1.42;71.52;100858.69;5010109;28;20037;-70
2021/03/09 00:06:37;;;;;;;19.65;10.68;;;;;;;1.44;71.13;100853.41;5009785;28;20042;-69
2021/03/09 00:09:02;;;;;;;17.10;9.65;;;;;;;1.48;70.70;100868.78;5010056;28;20120;-69
2021/03/09 00:11:27;;;;;;;19.55;11.20;;;;;;;1.49;70.79;100867.00;5009495;28;20402;-69
2021/03/09 00:13:53;;;;;;;20.55;11.57;;;;;;;1.53;70.47;100865.94;5010134;28;20044;-69
2021/03/09 00:16:18;;;;;;;16.65;10.65;;;;;;;1.49;70.77;100870.44;5009503;28;20057;-69
2021/03/09 00:18:43;;;;;;;17.23;9.50;;;;;;;1.45;70.51;100866.34;5009812;28;20064;-69
2021/03/09 00:21:08;;;;;;;14.88;8.48;;;;;;;1.41;71.10;100864.00;5008996;28;20121;-69
2021/03/09 00:23:34;;;;;;;17.98;10.48;;;;;;;1.42;70.55;100869.09;5009986;28;20391;-69
2021/03/09 00:25:59;;;;;;;15.30;9.55;;;;;;;1.32;71.14;100864.50;5010410;28;20038;-68
2021/03/09 00:28:25;;;;;;;18.77;11.07;;;;;;;1.31;71.47;100861.06;5008483;28;20088;-69
2021/03/09 00:30:50;;;;;;;16.27;8.80;;;;;;;1.20;72.20;100869.44;5010079;28;20080;-69
2021/03/09 00:33:15;;;;;;;18.50;10.32;;;;;;;1.19;72.00;100865.19;5009510;28;20034;-69
2021/03/09 00:35:40;;;;;;;17.00;9.80;;;;;;;1.15;72.33;100860.22;5009431;28;20033;-69
2021/03/09 00:38:06;;;;;;;23.00;12.30;;;;;;;1.13;71.91;100860.28;5008912;28;20084;-70
2021/03/09 00:40:31;;;;;;;22.52;11.68;;;;;;;1.04;72.04;100864.22;5009930;28;20038;-69
2021/03/09 00:42:56;;;;;;;19.30;10.90;;;;;;;1.03;72.82;100856.50;5008187;28;20324;-69
2021/03/09 00:45:22;;;;;;;19.48;11.50;;;;;;;1.09;72.06;100855.31;5010705;28;20125;-69
2021/03/09 00:47:47;;;;;;;18.65;10.88;;;;;;;1.15;71.70;100850.63;5009750;28;20467;-69
2021/03/09 00:50:13;;;;;;;18.95;10.27;;;;;;;1.15;71.80;100857.63;5009547;28;20572;-69
2021/03/09 00:52:38;;;;;;;15.35;8.55;;;;;;;1.12;71.87;100858.63;5009088;28;20459;-69
2021/03/09 00:55:04;;;;;;;12.70;7.22;;;;;;;1.08;72.81;100849.28;5009551;28;20072;-69
2021/03/09 00:57:29;;;;;;;10.50;6.88;;;;;;;1.04;73.83;100842.56;5008530;28;20030;-69
2021/03/09 00:59:54;;;;;;;18.10;10.15;;;;;;;1.01;73.21;100846.16;5009483;28;20038;-69
2021/03/09 01:02:20;;;;;;;20.27;10.80;;;;;;;1.04;72.12;100838.19;5008593;28;20087;-69
2021/03/09 01:04:45;;;;;;;14.75;8.65;;;;;;;0.99;72.78;100844.56;5009963;28;20088;-69
2021/03/09 01:07:10;;;;;;;14.05;8.93;;;;;;;1.00;72.58;100836.69;5008832;28;20030;-69
2021/03/09 01:09:36;;;;;;;18.67;10.07;;;;;;;0.99;72.75;100835.00;5009141;28;20037;-69
2021/03/09 01:12:01;;;;;;;16.25;8.40;;;;;;;1.03;71.93;100826.09;5008508;28;20037;-70
2021/03/09 01:14:27;;;;;;;15.30;9.20;;;;;;;1.05;71.95;100834.66;5008993;28;20125;-69
2021/03/09 01:16:53;;;;;;;13.15;7.55;;;;;;;1.01;72.64;100833.16;5008354;28;20094;-69
2021/03/09 01:19:18;;;;;;;16.95;9.20;;;;;;;1.05;72.10;100826.03;5009002;28;20558;-69
2021/03/09 01:21:43;;;;;;;11.93;6.78;;;;;;;1.03;72.01;100833.06;5009248;28;20431;-69
2021/03/09 01:24:09;;;;;;;12.35;6.60;;;;;;;1.02;72.41;100829.59;5008913;28;20084;-70
2021/03/09 01:26:34;;;;;;;11.23;6.40;;;;;;;1.00;72.62;100825.41;5008705;28;20113;-69
2021/03/09 01:28:59;;;;;;;11.85;6.95;;;;;;;1.00;71.88;100815.84;5008989;28;20034;-69
2021/03/09 01:31:24;;;;;;;12.05;7.60;;;;;;;1.03;71.59;100826.09;5008685;28;20037;-69
2021/03/09 01:33:50;;;;;;;13.88;8.05;;;;;;;1.01;71.97;100817.53;5008288;28;20037;-69
2021/03/09 01:36:15;;;;;;;12.40;7.88;;;;;;;0.99;72.38;100814.16;5008382;28;20491;-69
2021/03/09 01:38:40;;;;;;;14.50;8.70;;;;;;;0.95;72.77;100817.84;5009119;28;20037;-69
2021/03/09 01:41:06;;;;;;;17.85;9.10;;;;;;;0.98;72.03;100812.50;5009006;28;20395;-69
2021/03/09 01:43:34;;;;;;;14.65;8.18;;;;;;;0.97;72.35;100809.97;5009138;28;20034;-69
2021/03/09 01:46:00;;;;;;;16.90;9.25;;;;;;;0.99;72.44;100808.13;5009214;28;20498;-69
2021/03/09 01:48:31;;;;;;;15.55;8.32;;;;;;;0.99;72.50;100800.31;5008233;28;20232;-69
2021/03/09 01:50:56;;;;;;;15.23;7.82;;;;;;;0.92;72.83;100797.19;5001893;28;20060;-69
2021/03/09 01:53:22;;;;;;;14.48;8.10;;;;;;;0.93;72.65;100798.03;5009777;28;20052;-69
2021/03/09 01:55:47;;;;;;;15.82;8.52;;;;;;;0.94;72.41;100800.56;5013229;28;20432;-69
2021/03/09 01:58:16;;;;;;;9.95;6.50;;;;;;;0.88;73.35;100790.47;5011117;28;20530;-69
2021/03/09 02:00:42;;;;;;;10.48;6.18;;;;;;;0.84;74.11;100786.34;5012695;28;20030;-69
2021/03/09 02:03:07;;;;;;;10.38;6.05;;;;;;;0.82;74.54;100788.19;5012717;28;20096;-69
2021/03/09 02:05:33;;;;;;;9.07;5.75;;;;;;;0.80;74.08;100788.28;5012237;28;20563;-69
2021/03/09 02:07:58;;;;;;;10.13;6.25;;;;;;;0.76;74.39;100783.31;5012614;28;20322;-69
2021/03/09 02:10:24;;;;;;;11.57;6.22;;;;;;;0.80;73.45;100784.84;5011837;28;20034;-69
2021/03/09 02:13:14;;;;;;;7.50;4.78;;;;;;;0.80;74.76;100777.03;5010152;28;20292;-69
2021/03/09 02:15:55;;;;;;;11.57;6.20;;;;;;;0.80;73.54;100772.66;5007874;28;20042;-69
2021/03/09 02:18:38;;;;;;;12.45;7.68;;;;;;;0.87;72.98;100767.13;5011137;28;20042;-69
2021/03/09 02:21:42;;;;;;;9.80;5.57;;;;;;;0.85;73.79;100769.81;5011536;28;20034;-69
2021/03/09 02:24:44;;;;;;;15.30;8.07;;;;;;;0.93;72.99;100775.44;4992478;28;20088;-71
2021/03/09 02:27:24;;;;;;;12.68;7.70;;;;;;;0.94;72.69;100771.91;5011072;28;20034;-69
2021/03/09 02:29:56;;;;;;;13.88;8.40;;;;;;;1.02;72.46;100769.72;5012062;28;20042;-69
2021/03/09 02:32:25;;;;;;;13.02;8.23;;;;;;;1.01;72.56;100762.84;5011570;28;20494;-69
2021/03/09 02:34:55;;;;;;;11.45;6.70;;;;;;;1.02;72.56;100767.09;5012628;28;20100;-68
2021/03/09 02:37:23;;;;;;;13.73;7.75;;;;;;;1.05;72.83;100756.53;5011089;28;20196;-69
2021/03/09 02:39:50;;;;;;;10.70;5.88;;;;;;;1.02;72.47;100763.66;5012226;28;20065;-69
2021/03/09 02:42:24;;;;;;;7.97;5.07;;;;;;;1.02;72.47;100761.06;5002139;28;20045;-69
2021/03/09 02:44:56;;;;;;;14.80;7.63;;;;;;;1.06;72.31;100757.38;5011715;28;20450;-69
2021/03/09 02:47:22;;;;;;;8.48;5.32;;;;;;;0.96;72.80;100764.03;5011817;28;20124;-69
2021/03/09 02:49:50;;;;;;;9.88;5.35;;;;;;;0.95;73.10;100755.34;5011877;28;20586;-69
2021/03/09 02:52:18;;;;;;;10.48;6.63;;;;;;;1.00;72.60;100758.56;5011404;28;20419;-69
2021/03/09 02:54:45;;;;;;;11.13;6.22;;;;;;;0.96;73.04;100746.63;5012032;28;20042;-69
2021/03/09 02:57:13;;;;;;;12.27;7.22;;;;;;;0.94;73.58;100745.88;5009575;28;20084;-69
2021/03/09 02:59:40;;;;;;;10.73;6.18;;;;;;;0.87;73.60;100747.13;5011528;28;20121;-69
2021/03/09 03:02:06;;;;;;;9.80;6.28;;;;;;;0.93;73.16;100751.16;5010424;28;20376;-71
2021/03/09 03:04:33;;;;;;;9.25;5.82;;;;;;;0.94;73.23;100751.09;5011492;28;20034;-69
2021/03/09 03:06:59;;;;;;;11.48;6.70;;;;;;;0.96;73.27;100746.63;5011014;28;20030;-69
2021/03/09 03:09:25;;;;;;;11.10;6.38;;;;;;;0.99;73.03;100746.47;5011543;28;20030;-69
2021/03/09 03:11:51;;;;;;;12.45;7.10;;;;;;;1.01;72.90;100739.41;5009569;28;20045;-69
2021/03/09 03:14:18;;;;;;;11.07;6.78;;;;;;;1.06;72.76;100750.41;5009676;28;20052;-70
2021/03/09 03:16:44;;;;;;;13.80;8.00;;;;;;;1.14;72.42;100744.75;5010749;28;20398;-69
2021/03/09 03:19:11;;;;;;;12.85;7.63;;;;;;;1.13;72.72;100739.66;5011329;28;20096;-69
2021/03/09 03:21:37;;;;;;;9.50;6.03;;;;;;;1.12;73.20;100745.75;5010833;28;20038;-69
2021/03/09 03:24:05;;;;;;;13.20;7.68;;;;;;;1.14;72.55;100736.09;5010684;28;20129;-70
2021/03/09 03:26:40;;;;;;;13.07;7.47;;;;;;;1.07;73.34;100735.59;5010887;28;20037;-69
2021/03/09 03:29:07;;;;;;;11.10;6.50;;;;;;;1.14;72.81;100744.75;5010154;28;20221;-69
2021/03/09 03:31:33;;;;;;;10.20;6.10;;;;;;;1.13;73.06;100737.03;5011137;28;20120;-69
2021/03/09 03:33:59;;;;;;;6.90;4.63;;;;;;;1.15;73.29;100740.41;5010646;28;20117;-69
2021/03/09 03:36:25;;;;;;;9.25;5.13;;;;;;;1.13;73.06;100739.66;5010233;28;20053;-69
2021/03/09 03:38:51;;;;;;;6.68;4.40;;;;;;;1.11;73.54;100741.50;5010304;28;20042;-69
2021/03/09 03:41:16;;;;;;;8.27;5.18;;;;;;;1.04;74.36;100735.78;5010785;28;22060;-69
2021/03/09 03:43:41;;;;;;;9.02;5.97;;;;;;;0.97;74.27;100737.88;5010836;28;20034;-69
2021/03/09 03:46:07;;;;;;;9.63;5.70;;;;;;;1.01;73.76;100730.75;5009567;28;20037;-70
2021/03/09 03:48:36;;;;;;;11.13;5.80;;;;;;;0.97;74.37;100730.06;5010362;28;20044;-69
2021/03/09 03:51:05;;;;;;;10.60;6.38;;;;;;;1.04;74.20;100731.41;5000291;28;20048;-69
2021/03/09 03:53:57;;;;;;;10.73;6.03;;;;;;;1.05;73.58;100727.06;5010163;28;20463;-69
2021/03/09 03:56:43;;;;;;;13.80;7.20;;;;;;;0.95;74.72;100733.69;4997201;28;20128;-69
2021/03/09 03:59:16;;;;;;;16.65;9.10;;;;;;;0.82;74.84;100736.13;5009038;28;20494;-69
2021/03/09 04:01:42;;;;;;;17.58;9.55;;;;;;;0.77;75.53;100735.56;5008932;28;20088;-69
2021/03/09 04:04:11;;;;;;;14.77;8.60;;;;;;;0.75;74.84;100733.03;5010247;28;20368;-70
2021/03/09 04:06:49;;;;;;;17.90;8.82;;;;;;;0.71;75.34;100722.88;5011686;28;20461;-69
2021/03/09 04:09:15;;;;;;;14.95;7.60;;;;;;;0.70;74.79;100726.41;5011122;28;20064;-69
2021/03/09 04:11:41;;;;;;;15.43;8.10;;;;;;;0.66;74.89;100725.72;5011102;28;20026;-69
2021/03/09 04:14:12;;;;;;;16.02;8.18;;;;;;;0.65;75.13;100721.44;5010235;28;20041;-69
2021/03/09 04:16:38;;;;;;;14.55;7.88;;;;;;;0.67;75.75;100721.34;5008895;28;20517;-69
2021/03/09 04:19:05;;;;;;;14.93;8.10;;;;;;;0.79;74.39;100718.09;5009997;28;20384;-69
2021/03/09 04:21:32;;;;;;;14.55;8.20;;;;;;;1.00;73.67;100716.91;5010355;28;20540;-69
2021/03/09 04:24:00;;;;;;;9.70;6.15;;;;;;;1.06;74.22;100716.53;5010615;28;20168;-69
2021/03/09 04:26:26;;;;;;;10.32;6.32;;;;;;;1.01;74.00;100726.38;5009907;28;20129;-69
2021/03/09 04:28:53;;;;;;;11.57;6.60;;;;;;;0.90;74.59;100714.88;5009738;28;20140;-69
2021/03/09 04:31:19;;;;;;;11.95;6.97;;;;;;;0.94;74.24;100719.00;5009691;28;20137;-69
2021/03/09 04:33:48;;;;;;;9.57;5.40;;;;;;;0.89;74.05;100714.06;5008197;28;20180;-69
2021/03/09 04:36:14;;;;;;;10.88;6.20;;;;;;;0.83;74.77;100715.25;5009318;28;20077;-69
2021/03/09 04:38:40;;;;;;;11.30;6.57;;;;;;;0.88;74.63;100716.72;5009512;28;20594;-69
2021/03/09 04:41:06;;;;;;;12.38;6.35;;;;;;;0.81;74.24;100714.47;5010115;28;20045;-69
2021/03/09 04:43:33;;;;;;;8.88;5.00;;;;;;;0.84;74.63;100724.72;5009017;28;20049;-69
2021/03/09 04:46:00;;;;;;;7.97;5.40;;;;;;;0.90;73.44;100718.31;5010253;28;20560;-69
2021/03/09 04:48:26;;;;;;;13.93;7.93;;;;;;;0.79;75.18;100716.31;5008901;28;20046;-69
2021/03/09 04:50:58;;;;;;;12.73;7.47;;;;;;;0.69;75.07;100724.72;5008921;28;20030;-69
2021/03/09 04:53:24;;;;;;;14.65;8.25;;;;;;;0.60;75.43;100719.09;5009777;28;20197;-69
2021/03/09 04:55:49;;;;;;;16.65;9.27;;;;;;;0.50;75.45;100717.06;5008784;28;20394;-69
2021/03/09 04:58:14;;;;;;;14.65;8.55;;;;;;;0.41;75.55;100723.63;5008639;28;20041;-69
2021/03/09 05:00:40;;;;;;;17.17;10.18;;;;;;;0.38;75.08;100723.75;5009573;28;20407;-69
2021/03/09 05:03:06;;;;;;;18.40;9.68;;;;;;;0.20;75.98;100718.63;5008497;28;20037;-69
2021/03/09 05:05:31;;;;;;;14.55;8.98;;;;;;;0.18;75.35;100728.25;5009722;28;20037;-69
2021/03/09 05:07:56;;;;;;;13.52;8.15;;;;;;;0.15;76.59;100714.59;5009205;28;20100;-69
2021/03/09 05:10:22;;;;;;;10.57;6.18;;;;;;;0.24;76.67;100719.31;5007173;28;20126;-69
2021/03/09 05:12:49;;;;;;;13.38;7.63;;;;;;;0.20;76.62;100723.81;5008834;28;20030;-69
2021/03/09 05:15:17;;;;;;;12.38;7.80;;;;;;;0.19;76.50;100716.09;5008646;28;20034;-69
2021/03/09 05:17:42;;;;;;;12.07;7.32;;;;;;;0.23;76.89;100722.81;5009084;28;20042;-69
2021/03/09 05:20:11;;;;;;;15.38;8.77;;;;;;;0.24;76.58;100718.44;5009520;28;20118;-69
2021/03/09 05:22:37;;;;;;;11.77;7.40;;;;;;;0.25;75.65;100722.75;5009154;28;20034;-69
2021/03/09 05:25:04;;;;;;;10.32;6.65;;;;;;;0.28;77.04;100719.97;5009445;28;20121;-69
2021/03/09 05:27:29;;;;;;;12.02;6.80;;;;;;;0.29;77.01;100719.91;5009828;28;20403;-69
2021/03/09 05:29:54;;;;;;;14.52;8.32;;;;;;;0.28;76.80;100727.78;5013197;28;20038;-69
2021/03/09 05:32:20;;;;;;;12.50;7.80;;;;;;;0.28;76.44;100723.41;5012837;28;22913;-69
2021/03/09 05:34:45;;;;;;;11.93;6.85;;;;;;;0.29;77.32;100727.69;5011417;28;20506;-69
2021/03/09 05:37:11;;;;;;;12.18;7.00;;;;;;;0.32;76.98;100714.53;5012621;28;20538;-69
2021/03/09 05:39:37;;;;;;;15.25;8.18;;;;;;;0.33;76.62;100720.56;5011526;28;20030;-69
2021/03/09 05:42:08;;;;;;;11.98;7.25;;;;;;;0.35;76.39;100719.56;5012274;28;20494;-69
2021/03/09 05:44:34;;;;;;;11.90;7.10;;;;;;;0.39;77.11;100715.03;5012458;28;20030;-69
2021/03/09 05:47:01;;;;;;;11.73;6.68;;;;;;;0.42;77.47;100715.72;5012935;28;20109;-69
2021/03/09 05:49:27;;;;;;;11.77;7.05;;;;;;;0.45;77.48;100721.66;5012788;28;20064;-68
2021/03/09 05:51:53;;;;;;;13.93;7.70;;;;;;;0.44;76.70;100728.63;5013162;28;20066;-69
2021/03/09 05:54:20;;;;;;;11.50;6.93;;;;;;;0.47;76.77;100728.47;5012355;28;20041;-69
2021/03/09 05:56:46;;;;;;;8.40;5.05;;;;;;;0.52;76.06;100726.44;5012594;28;20309;-69
2021/03/09 05:59:11;;;;;;;9.18;5.82;;;;;;;0.56;76.38;100727.97;5012799;28;20517;-69
2021/03/09 06:01:36;;;;;;;13.65;7.78;;;;;;;0.54;77.25;100723.78;5012726;28;20038;-69
2021/03/09 06:04:02;;;;;;;9.75;6.32;;;;;;;0.58;76.46;100728.75;5011741;28;20461;-70
2021/03/09 06:06:28;;;;;;;10.95;6.57;;;;;;;0.61;75.71;100725.97;5011961;28;20502;-69
2021/03/09 06:08:53;;;;;;;8.70;4.78;;;;;;;0.68;75.31;100720.44;5012367;28;20026;-69
2021/03/09 06:11:19;;;;;;;6.72;4.20;;;;;;;0.73;74.90;100726.22;5010917;28;20506;-69
2021/03/09 06:13:46;;;;;;;8.25;5.50;;;;;;;0.79;75.29;100733.72;5013129;28;20030;-69
2021/03/09 06:16:12;;;;;;;9.85;5.75;;;;;;;0.83;74.78;100740.41;5012504;28;20030;-69
2021/03/09 06:18:50;;;;;;;8.55;5.63;;;;;;;0.90;75.11;100741.75;5012167;28;20037;-69
2021/03/09 06:21:16;;;;;;;9.30;6.18;;;;;;;0.95;76.43;100736.28;5010520;28;20026;-69
2021/03/09 06:23:43;;;;;;;13.20;8.13;;;;;;;0.97;75.27;100732.69;5012144;28;20037;-69
2021/03/09 06:26:37;;;;;;;10.68;6.65;;;;;;;1.00;75.00;100731.66;5012151;28;20087;-70
2021/03/09 06:29:16;;;;;;;10.38;7.00;;;;;;;1.08;74.46;100731.25;5011667;28;20136;-69
2021/03/09 06:32:04;;;;;;;11.80;6.68;;;;;;;1.12;75.07;100740.56;5012118;28;20343;-69
2021/03/09 06:34:34;;;;;;;12.15;7.35;;;;;;;1.19;73.94;100736.69;5004093;28;20050;-69
2021/03/09 06:37:05;;;;;;;13.82;6.95;;;;;;;1.21;74.07;100732.22;5011800;28;20109;-69
2021/03/09 06:39:44;;;;;;;8.82;5.75;;;;;;;1.28;73.69;100733.56;5010841;28;20061;-69
2021/03/09 06:42:11;;;;;;;8.85;5.78;;;;;;;1.35;74.80;100729.69;5011201;28;20538;-71
2021/03/09 06:44:37;;;;;;;9.68;6.10;;;;;;;1.37;74.69;100727.84;5010927;28;20042;-69
2021/03/09 06:47:03;;;;;;;12.88;8.32;;;;;;;1.32;74.66;100729.88;5011150;28;20041;-69
2021/03/09 06:49:28;;;;;;;12.15;6.90;;;;;;;1.38;74.45;100737.34;5011848;28;20451;-69
2021/03/09 06:51:54;;;;;;;12.25;7.22;;;;;;;1.53;73.50;100738.22;4992748;28;20041;-70
2021/03/09 06:54:19;;;;;;;12.90;7.95;;;;;;;1.60;73.22;100739.53;5004027;28;20053;-70
2021/03/09 06:56:46;;;;;;;10.10;6.40;;;;;;;1.63;73.35;100743.75;5011510;28;20042;-70
2021/03/09 06:59:30;;;;;;;9.80;6.05;;;;;;;1.67;73.18;100742.66;5011514;28;20061;-70
2021/03/09 07:02:28;;;;;;;12.48;7.85;;;;;;;1.63;74.55;100747.19;5010926;28;20526;-70
2021/03/09 07:05:06;;;;;;;14.32;8.85;;;;;;;1.54;75.19;100749.47;5010796;28;20117;-69
2021/03/09 07:07:38;;;;;;;12.13;8.13;;;;;;;1.58;73.90;100748.38;4993531;28;20407;-70
2021/03/09 07:10:06;;;;;;;10.20;5.03;;;;;;;1.72;73.30;100755.38;5009344;28;20038;-70
2021/03/09 07:12:32;;;;;;;8.45;5.38;;;;;;;1.86;72.94;100742.38;5010269;28;20515;-69
2021/03/09 07:14:59;;;;;;;10.82;6.53;;;;;;;2.02;72.43;100745.75;5006967;28;20121;-70
2021/03/09 07:17:30;;;;;;;16.23;8.38;;;;;;;2.13;71.99;100752.94;5004390;28;20411;-70
2021/03/09 07:19:56;;;;;;;8.95;5.28;;;;;;;2.22;71.92;100756.78;5007313;28;20030;-70
2021/03/09 07:22:24;;;;;;;15.30;8.68;;;;;;;2.38;71.09;100760.13;5008145;28;20076;-70
2021/03/09 07:24:53;;;;;;;17.60;8.80;;;;;;;2.43;70.81;100759.84;5006183;28;20088;-70
2021/03/09 07:27:25;;;;;;;14.85;9.23;;;;;;;2.43;70.62;100770.28;5006001;28;20044;-70
2021/03/09 07:29:55;;;;;;;13.63;7.97;;;;;;;2.47;70.53;100769.16;4992430;28;20411;-70
2021/03/09 07:32:22;;;;;;;15.63;8.88;;;;;;;2.55;69.98;100764.31;5003649;28;20045;-70
2021/03/09 07:34:49;;;;;;;15.35;9.18;;;;;;;2.57;70.02;100764.22;4999300;28;20113;-70
2021/03/09 07:37:16;;;;;;;12.52;7.53;;;;;;;2.63;69.95;100771.69;4991560;28;20034;-70
2021/03/09 07:39:42;;;;;;;13.02;7.90;;;;;;;2.70;69.72;100771.22;4992147;28;20069;-70
2021/03/09 07:42:09;;;;;;;9.05;5.93;;;;;;;2.70;70.11;100768.59;5011076;28;20081;-69
2021/03/09 07:44:37;;;;;;;12.20;7.20;;;;;;;2.80;69.66;100765.41;5011646;28;20030;-70
2021/03/09 07:47:04;;;;;;;9.98;6.15;;;;;;;2.90;69.85;100769.13;5011447;28;20026;-69
2021/03/09 07:49:30;;;;;;;10.07;6.78;;;;;;;2.92;69.80;100769.88;5010624;28;20132;-69
2021/03/09 07:52:13;;;;;;;13.32;8.30;;;;;;;3.05;69.53;100777.75;5009778;28;20121;-69
2021/03/09 07:54:40;;;;;;;14.48;8.57;;;;;;;3.21;68.91;100775.00;5010184;28;20065;-69
2021/03/09 07:57:20;;;;;;;12.23;6.85;;;;;;;3.28;68.26;100769.28;5009436;28;20052;-69
2021/03/09 08:00:05;;;;;;;9.52;5.95;;;;;;;3.37;68.46;100775.72;5009301;28;20044;-70
2021/03/09 08:02:57;;;;;;;11.38;6.95;;;;;;;3.41;68.54;100769.34;5010568;28;20065;-70
2021/03/09 08:05:27;;;;;;;10.65;6.82;;;;;;;3.67;67.83;100772.00;5009731;28;20523;-71
2021/03/09 08:08:02;;;;;;;8.68;5.15;;;;;;;3.89;68.09;100772.28;5010904;28;20030;-70
2021/03/09 08:10:27;;;;;;;14.15;8.15;;;;;;;4.07;67.16;100764.13;5010393;28;20134;-70
2021/03/09 08:13:18;;;;;;;12.57;7.00;;;;;;;4.19;66.83;100769.34;5011058;28;20053;-71
2021/03/09 08:15:43;;;;;;;11.53;7.03;;;;;;;4.36;64.92;100773.44;5010429;28;20052;-70
2021/03/09 08:18:24;;;;;;;9.73;6.03;;;;;;;4.45;66.41;100775.41;5009385;28;20038;-70
2021/03/09 08:20:54;;;;;;;11.40;7.43;;;;;;;4.41;65.13;100773.97;5010853;28;20499;-70
2021/03/09 08:23:31;;;;;;;11.15;7.60;;;;;;;4.60;64.65;100770.91;5010261;28;20034;-70
2021/03/09 08:26:06;;;;;;;12.73;7.82;;;;;;;4.82;63.23;100777.25;5010400;28;20570;-70
2021/03/09 08:28:35;;;;;;;13.73;8.77;;;;;;;5.09;64.08;100779.69;5009842;28;20049;-71
2021/03/09 08:31:13;;;;;;;11.80;7.18;;;;;;;5.30;64.35;100778.13;5010930;28;20061;-70
2021/03/09 08:34:06;;;;;;;17.17;9.50;;;;;;;5.65;63.69;100787.84;5000401;28;20046;-70
2021/03/09 08:36:35;;;;;;;14.43;8.50;;;;;;;5.74;62.94;100781.91;5009352;28;20064;-70
2021/03/09 08:39:01;;;;;;;11.82;7.32;;;;;;;5.86;61.57;100785.38;5010182;28;20402;-70
2021/03/09 08:41:35;;;;;;;10.38;7.32;;;;;;;5.99;61.15;100779.25;5010516;28;20046;-70
2021/03/09 08:44:20;;;;;;;17.58;9.32;;;;;;;6.27;62.35;100777.97;5010314;28;20038;-72
2021/03/09 08:47:07;;;;;;;13.75;7.65;;;;;;;6.50;61.58;100779.66;5002793;28;20035;-70
2021/03/09 08:49:41;;;;;;;16.48;10.15;;;;;;;6.81;58.67;100777.25;4990407;28;20058;-70
2021/03/09 08:52:08;;;;;;;15.85;9.35;;;;;;;6.34;59.04;100784.44;4990608;28;20041;-71
2021/03/09 08:54:39;;;;;;;15.75;8.95;;;;;;;6.25;60.47;100786.00;5009593;28;20034;-70
2021/03/09 08:57:07;;;;;;;;;;;;;;;6.54;60.73;100794.25;5010482;28;20399;-70
2021/03/09 08:59:34;;;;;;;12.30;8.25;;;;;;;6.46;59.88;100780.03;5009158;28;19964;-70
2021/03/09 09:02:13;;;;;;;13.75;8.90;;;;;;;6.24;60.42;100783.47;5009887;28;20113;-70
2021/03/09 09:04:54;;;;;;;12.98;8.20;;;;;;;6.11;61.28;100784.41;5009464;28;20038;-70
2021/03/09 09:07:26;;;;;;;15.52;9.70;;;;;;;6.23;61.19;100780.00;5009813;28;20030;-70
2021/03/09 09:09:55;;;;;;;13.82;9.27;;;;;;;6.02;60.45;100779.84;5003968;28;20069;-70
2021/03/09 09:12:27;;;;;;;14.23;9.02;;;;;;;5.74;61.54;100784.53;5007699;28;20042;-70
2021/03/09 09:15:06;;;;;;;13.52;8.73;;;;;;;5.78;62.51;100781.66;4990293;28;20535;-70
2021/03/09 09:17:31;;;;;;;11.38;7.90;;;;;;;5.96;61.62;100777.72;4991168;28;20425;-70
2021/03/09 09:19:58;;;;;;;13.60;8.68;;;;;;;6.16;61.68;100782.25;5009627;28;20045;-70
2021/03/09 09:22:25;;;;;;;15.43;9.45;;;;;;;6.01;60.99;100782.63;5009200;28;20037;-70
2021/03/09 09:24:57;;;;;;;18.45;11.43;;;;;;;6.40;60.49;100780.50;5009541;28;20037;-70
2021/03/09 09:27:23;;;;;;;16.85;10.07;;;;;;;6.38;59.59;100780.63;5009533;28;20068;-70
2021/03/09 09:29:56;;;;;;;17.83;10.90;;;;;;;6.51;59.08;100791.84;5009094;28;20069;-70
2021/03/09 09:32:22;;;;;;;15.30;10.10;;;;;;;7.00;58.38;100781.91;5009578;28;20092;-70
2021/03/09 09:34:57;;;;;;;13.77;9.13;;;;;;;7.32;59.07;100781.13;5009275;28;20046;-70
2021/03/09 09:37:23;;;;;;;18.10;11.25;;;;;;;8.21;55.39;100790.38;5010039;28;20049;-70
2021/03/09 09:39:48;;;;;;;18.60;11.68;;;;;;;8.53;55.07;100783.34;5010410;28;20133;-70
2021/03/09 09:42:19;;;;;;;11.48;8.10;;;;;;;8.67;53.61;100786.44;5009916;28;20069;-70
2021/03/09 09:44:45;;;;;;;14.50;10.00;;;;;;;9.24;53.08;100778.00;5009351;28;20029;-70
2021/03/09 09:47:13;;;;;;;15.80;10.48;;;;;;;9.29;51.00;100778.41;4998876;28;20392;-71
2021/03/09 09:49:42;;;;;;;15.52;10.55;;;;;;;9.13;50.77;100781.59;5004243;28;20486;-71
2021/03/09 09:52:14;;;;;;;17.15;9.82;;;;;;;8.41;50.52;100780.78;5009467;28;20038;-71
2021/03/09 09:54:50;;;;;;;13.65;9.02;;;;;;;8.31;53.12;100764.06;5009851;28;20095;-71
2021/03/09 09:57:15;;;;;;;13.77;9.55;;;;;;;7.86;53.69;100769.63;5009936;28;20106;-70
2021/03/09 09:59:40;;;;;;;11.20;7.90;;;;;;;7.79;52.88;100771.09;5008621;28;20173;-70
2021/03/09 10:02:23;;;;;;;13.52;8.50;;;;;;;7.66;53.23;100772.13;5007427;28;20045;-71
2021/03/09 10:04:50;;;;;;;12.55;8.80;;;;;;;7.54;54.34;100769.66;5009531;28;20085;-70
2021/03/09 10:07:22;;;;;;;12.20;8.68;;;;;;;7.00;54.58;100766.94;5007237;28;20133;-70
2021/03/09 10:10:01;;;;;;;15.35;10.43;;;;;;;7.41;53.72;100770.69;5009210;28;20053;-70
2021/03/09 10:12:38;;;;;;;11.15;7.65;;;;;;;7.21;56.26;100772.28;5008289;28;20040;-70
2021/03/09 10:15:07;;;;;;;12.05;8.23;;;;;;;6.96;54.22;100770.81;5011968;28;20037;-70
2021/03/09 10:17:33;;;;;;;13.43;9.23;;;;;;;7.26;54.23;100771.91;5013929;28;20095;-70
2021/03/09 10:19:58;;;;;;;12.77;8.93;;;;;;;7.07;55.20;100774.38;5012869;28;20268;-70
2021/03/09 10:22:25;;;;;;;12.40;8.35;;;;;;;7.11;53.50;100774.00;5012479;28;20269;-71
2021/03/09 10:24:51;;;;;;;10.68;7.18;;;;;;;7.15;53.68;100769.31;5011982;28;20041;-70
2021/03/09 10:27:23;;;;;;;11.07;6.93;;;;;;;7.09;52.93;100775.91;5012610;28;20049;-70
2021/03/09 10:29:54;;;;;;;11.20;6.90;;;;;;;7.51;53.31;100776.03;5012823;28;20034;-70
2021/03/09 10:32:20;;;;;;;11.40;7.38;;;;;;;7.65;52.34;100777.50;5012210;28;20509;-71
2021/03/09 10:34:52;;;;;;;11.00;7.30;;;;;;;7.71;52.38;100774.38;5012206;28;20404;-70
2021/03/09 10:37:41;;;;;;;11.48;7.63;;;;;;;7.88;52.37;100771.16;5010944;28;20061;-70
2021/03/09 10:40:10;;;;;;;9.23;6.47;;;;;;;7.82;50.65;100768.22;5010506;28;20042;-71
2021/03/09 10:42:37;;;;;;;12.82;8.75;;;;;;;8.26;50.23;100768.91;5011156;28;20114;-70
2021/03/09 10:45:22;;;;;;;11.25;7.45;;;;;;;8.42;50.68;100764.03;5012411;28;20034;-70
2021/03/09 10:47:56;;;;;;;11.05;6.50;;;;;;;8.48;51.49;100765.28;5000927;28;20034;-70
2021/03/09 10:50:23;;;;;;;10.73;7.60;;;;;;;8.64;50.33;100764.81;5013364;28;20054;-70
2021/03/09 10:52:49;;;;;;;12.13;7.50;;;;;;;8.66;50.69;100758.41;5013149;28;20109;-70
2021/03/09 10:55:14;;;;;;;9.05;5.55;;;;;;;8.69;48.70;100752.03;4998953;28;20121;-70
2021/03/09 10:57:40;;;;;;;8.85;5.60;;;;;;;8.73;47.80;100753.44;5007952;28;20446;-70
2021/03/09 11:00:08;;;;;;;7.32;5.32;;;;;;;8.64;48.61;100759.53;5010728;28;20561;-71
2021/03/09 11:02:33;;;;;;;6.72;4.97;;;;;;;8.66;47.86;100753.16;5011848;28;20125;-70
2021/03/09 11:04:59;;;;;;;5.90;4.15;;;;;;;8.68;48.83;100753.84;5010492;28;20428;-70
2021/03/09 11:07:25;;;;;;;6.53;4.28;;;;;;;8.78;48.20;100755.69;5012060;28;20376;-70
2021/03/09 11:09:51;;;;;;;5.55;3.50;;;;;;;8.64;44.48;100752.44;5011825;28;20057;-70
2021/03/09 11:12:17;;;;;;;5.32;3.08;;;;;;;8.79;43.35;100752.06;5009839;28;20598;-70
2021/03/09 11:14:42;;;;;;;5.53;3.45;;;;;;;9.10;44.51;100750.19;5011716;28;20030;-70
2021/03/09 11:17:07;;;;;;;7.60;4.68;;;;;;;9.17;45.58;100750.47;5010989;28;20422;-70
2021/03/09 11:19:33;;;;;;;6.10;3.95;;;;;;;9.46;44.40;100747.84;5012054;28;20053;-70
2021/03/09 11:22:00;;;;;;;8.38;4.68;;;;;;;9.48;42.45;100749.38;5011306;28;20030;-70
2021/03/09 11:24:25;;;;;;;6.68;4.15;;;;;;;9.12;45.19;100746.44;5002900;28;20522;-70
2021/03/09 11:26:56;;;;;;;7.05;5.05;;;;;;;9.20;44.25;100743.16;5006902;28;20057;-70
2021/03/09 11:29:21;;;;;;;9.57;5.47;;;;;;;9.33;44.06;100746.34;4994270;28;20034;-69
2021/03/09 11:31:46;;;;;;;9.27;5.03;;;;;;;9.35;43.98;100743.56;4991404;28;20526;-70
2021/03/09 11:34:12;;;;;;;6.00;4.18;;;;;;;9.27;44.17;100740.75;4992973;28;20042;-70
2021/03/09 11:36:37;;;;;;;7.15;4.40;;;;;;;9.30;45.21;100735.22;5010859;28;20034;-70